Time;durP1;ratioP1;P1;durP2;ratioP2;P2;SDS_P1;SDS_P2;PMS_P1;PMS_P2;Temp;Humidity;BMP_temperature;BMP_pressure;BME280_temperature;BME280_humidity;BME280_pressure;Samples;Min_cycle;Max_cycle;Signal;HPM_P1;HPM_P2
2021/04/19 00:00:10;;;;;;;19.80;9.65;;;7.60;99.90;;;;;;5052605;28;20033;-70
2021/04/19 00:02:36;;;;;;;18.13;10.05;;;7.50;99.90;;;;;;5065381;28;20036;-71
2021/04/19 00:05:05;;;;;;;18.58;10.57;;;7.60;99.90;;;;;;5054775;28;20025;-70
2021/04/19 00:07:31;;;;;;;19.60;10.63;;;7.70;99.90;;;;;;5054855;28;20480;-71
2021/04/19 00:09:56;;;;;;;19.85;10.55;;;7.70;99.90;;;;;;5058833;28;20060;-71
2021/04/19 00:12:22;;;;;;;18.38;10.30;;;7.90;99.90;;;;;;5063078;28;20062;-70
2021/04/19 00:14:48;;;;;;;18.17;10.20;;;8.00;99.90;;;;;;5067602;28;20020;-71
2021/04/19 00:17:13;;;;;;;18.20;9.95;;;8.20;99.90;;;;;;5058666;28;20043;-70
2021/04/19 00:19:39;;;;;;;20.85;10.77;;;8.20;99.90;;;;;;5056940;28;20559;-71
2021/04/19 00:22:04;;;;;;;20.17;11.00;;;8.50;99.90;;;;;;5057856;28;20067;-71
2021/04/19 00:24:30;;;;;;;18.25;10.15;;;8.60;99.90;;;;;;5056032;28;20687;-71
2021/04/19 00:26:56;;;;;;;17.73;10.50;;;8.70;99.90;;;;;;5050340;28;20113;-71
2021/04/19 00:29:22;;;;;;;21.73;10.95;;;8.90;99.90;;;;;;5063532;28;20051;-71
2021/04/19 00:31:48;;;;;;;18.25;10.02;;;8.80;99.90;;;;;;5056415;28;20020;-71
2021/04/19 00:34:14;;;;;;;17.15;10.00;;;9.00;99.90;;;;;;5059737;28;20036;-71
2021/04/19 00:36:39;;;;;;;19.02;10.25;;;9.00;99.90;;;;;;5057064;28;20082;-71
2021/04/19 00:39:05;;;;;;;16.52;10.05;;;9.00;99.90;;;;;;5050748;28;20581;-70
2021/04/19 00:41:31;;;;;;;19.52;10.88;;;9.00;99.90;;;;;;5062429;28;20029;-71
2021/04/19 00:43:57;;;;;;;17.27;9.80;;;9.10;99.90;;;;;;5061790;28;20044;-71
2021/04/19 00:46:24;;;;;;;19.60;10.15;;;9.10;99.90;;;;;;5061575;28;20018;-71
2021/04/19 00:48:49;;;;;;;18.55;10.07;;;9.10;99.90;;;;;;5062304;28;20025;-71
2021/04/19 00:51:15;;;;;;;22.42;11.05;;;9.10;99.90;;;;;;5052657;28;20040;-71
2021/04/19 00:53:42;;;;;;;17.00;9.77;;;9.00;99.90;;;;;;5049188;28;20059;-71
2021/04/19 00:56:08;;;;;;;16.80;10.00;;;9.00;99.90;;;;;;5050776;28;20037;-71
2021/04/19 00:58:35;;;;;;;15.65;9.25;;;8.80;99.90;;;;;;5059124;28;20170;-72
2021/04/19 01:01:02;;;;;;;16.23;9.07;;;8.90;99.90;;;;;;5064576;28;20025;-72
2021/04/19 01:03:28;;;;;;;17.67;10.35;;;9.00;99.90;;;;;;5063757;28;20028;-71
2021/04/19 01:05:55;;;;;;;17.90;10.40;;;8.90;99.90;;;;;;5053248;28;20528;-71
2021/04/19 01:08:21;;;;;;;18.08;10.30;;;8.90;99.90;;;;;;5067287;28;20392;-71
2021/04/19 01:10:47;;;;;;;20.95;10.85;;;8.90;99.90;;;;;;5053741;28;20033;-71
2021/04/19 01:13:12;;;;;;;18.42;10.35;;;8.90;99.90;;;;;;5057134;28;20025;-72
2021/04/19 01:15:38;;;;;;;20.13;10.63;;;9.00;99.90;;;;;;5070896;28;20498;-71
2021/04/19 01:18:05;;;;;;;18.40;10.32;;;9.10;99.90;;;;;;5062596;28;20044;-71
2021/04/19 01:20:37;;;;;;;18.92;10.27;;;9.20;99.90;;;;;;5070916;28;20033;-70
2021/04/19 01:23:02;;;;;;;19.67;10.48;;;9.30;99.90;;;;;;5055848;28;20017;-71
2021/04/19 01:25:29;;;;;;;20.55;10.80;;;9.20;99.90;;;;;;5061182;28;20024;-72
2021/04/19 01:27:56;;;;;;;19.10;10.70;;;9.20;99.90;;;;;;5058513;28;20062;-71
2021/04/19 01:30:24;;;;;;;20.25;11.05;;;9.20;99.90;;;;;;5071746;28;20017;-70
2021/04/19 01:32:50;;;;;;;23.15;12.43;;;9.30;99.90;;;;;;5070414;28;20032;-70
2021/04/19 01:35:17;;;;;;;20.80;11.52;;;9.30;99.90;;;;;;5060287;28;20434;-70
2021/04/19 01:37:43;;;;;;;23.15;12.23;;;9.20;99.90;;;;;;5063151;28;20036;-71
2021/04/19 01:40:12;;;;;;;22.70;12.85;;;9.10;99.90;;;;;;5061800;28;20029;-72
2021/04/19 01:42:38;;;;;;;22.95;12.95;;;9.10;99.90;;;;;;5063890;28;20024;-71
2021/04/19 01:45:05;;;;;;;24.55;14.00;;;9.20;99.90;;;;;;5058807;28;20025;-71
2021/04/19 01:47:31;;;;;;;25.75;14.85;;;9.20;99.90;;;;;;5055060;28;20024;-71
2021/04/19 01:49:57;;;;;;;27.50;14.93;;;9.20;99.90;;;;;;5065994;28;20074;-71
2021/04/19 01:52:22;;;;;;;28.58;16.50;;;9.20;99.90;;;;;;5069073;28;20036;-71
2021/04/19 01:54:48;;;;;;;27.00;15.25;;;9.20;99.90;;;;;;5062550;28;20059;-71
2021/04/19 01:57:14;;;;;;;29.05;16.38;;;9.10;99.90;;;;;;5058150;28;20074;-71
2021/04/19 01:59:41;;;;;;;33.25;17.67;;;9.00;99.90;;;;;;5057926;28;20017;-70
2021/04/19 02:02:09;;;;;;;32.00;16.92;;;8.70;99.90;;;;;;5061849;28;20476;-70
2021/04/19 02:04:46;;;;;;;35.75;18.92;;;8.90;99.90;;;;;;5065375;28;20021;-70
2021/04/19 02:07:34;;;;;;;35.45;17.00;;;8.90;99.90;;;;;;5065018;28;20035;-70
2021/04/19 02:10:17;;;;;;;32.97;18.83;;;9.00;99.90;;;;;;5059195;28;20024;-69
2021/04/19 02:12:49;;;;;;;36.05;20.38;;;9.20;99.90;;;;;;5073528;28;20043;-69
2021/04/19 02:15:23;;;;;;;37.53;20.10;;;9.10;99.90;;;;;;5065250;28;20448;-69
2021/04/19 02:18:05;;;;;;;37.85;19.48;;;9.10;99.90;;;;;;5063097;28;20032;-68
2021/04/19 02:20:39;;;;;;;40.13;21.15;;;9.20;99.90;;;;;;5066419;28;20040;-68
2021/04/19 02:23:20;;;;;;;44.15;22.77;;;9.10;99.90;;;;;;5063702;28;20036;-68
2021/04/19 02:25:49;;;;;;;44.55;23.13;;;9.00;99.90;;;;;;5059621;28;20017;-67
2021/04/19 02:28:27;;;;;;;50.20;24.85;;;9.00;99.90;;;;;;5066494;28;20044;-67
2021/04/19 02:30:58;;;;;;;50.55;25.70;;;8.80;99.90;;;;;;5063433;28;20513;-67
2021/04/19 02:33:29;;;;;;;51.00;25.67;;;9.00;99.90;;;;;;5067234;28;20074;-67
2021/04/19 02:35:55;;;;;;;;;;;8.80;99.90;;;;;;5065607;28;20064;-67
2021/04/19 02:38:25;;;;;;;51.47;26.77;;;8.80;99.90;;;;;;5064848;28;19951;-68
2021/04/19 02:40:51;;;;;;;54.95;25.85;;;8.60;99.90;;;;;;5062780;28;20049;-67
2021/04/19 02:43:18;;;;;;;51.13;25.83;;;8.80;99.90;;;;;;5055311;28;20567;-68
2021/04/19 02:45:44;;;;;;;56.95;28.17;;;9.00;99.90;;;;;;5056369;28;20028;-68
2021/04/19 02:48:12;;;;;;;54.00;28.20;;;8.90;99.90;;;;;;5055609;28;20021;-68
2021/04/19 02:50:38;;;;;;;50.08;28.08;;;9.10;99.90;;;;;;5087073;28;20028;-68
2021/04/19 02:53:04;;;;;;;56.53;28.00;;;9.20;99.90;;;;;;5059462;28;20046;-68
2021/04/19 02:55:31;;;;;;;54.58;27.92;;;9.10;99.90;;;;;;5061074;28;20048;-68
2021/04/19 02:58:06;;;;;;;55.33;28.23;;;9.10;99.90;;;;;;5056687;28;20067;-69
2021/04/19 03:00:40;;;;;;;55.80;27.83;;;9.00;99.90;;;;;;5060773;28;20020;-69
2021/04/19 03:03:10;;;;;;;53.25;26.80;;;9.30;99.90;;;;;;5055401;28;20029;-69
2021/04/19 03:05:38;;;;;;;49.33;26.10;;;9.10;99.90;;;;;;5055199;28;20696;-69
2021/04/19 03:08:10;;;;;;;49.55;25.73;;;9.10;99.90;;;;;;5061196;28;20537;-68
2021/04/19 03:10:39;;;;;;;47.20;25.75;;;9.20;99.90;;;;;;5062394;28;20115;-69
2021/04/19 03:13:07;;;;;;;42.00;21.92;;;9.10;99.90;;;;;;5059774;28;20052;-68
2021/04/19 03:15:37;;;;;;;42.13;23.00;;;8.90;99.90;;;;;;5059462;28;20032;-68
2021/04/19 03:18:06;;;;;;;41.92;21.40;;;8.80;99.90;;;;;;5064912;28;20667;-68
2021/04/19 03:21:04;;;;;;;40.50;21.00;;;8.70;99.90;;;;;;5065763;28;20024;-68
2021/04/19 03:23:33;;;;;;;42.38;20.65;;;8.70;99.90;;;;;;5052371;28;20025;-69
2021/04/19 03:26:01;;;;;;;38.85;20.08;;;8.80;99.90;;;;;;5057442;28;20029;-68
2021/04/19 03:28:30;;;;;;;44.47;21.95;;;8.70;99.90;;;;;;5058821;28;20033;-69
2021/04/19 03:30:56;;;;;;;43.05;21.08;;;8.60;99.90;;;;;;5062780;28;20025;-69
2021/04/19 03:33:24;;;;;;;40.90;21.17;;;8.50;99.90;;;;;;5056398;28;20411;-69
2021/04/19 03:35:50;;;;;;;41.92;20.63;;;8.60;99.90;;;;;;5063679;28;20032;-69
2021/04/19 03:38:19;;;;;;;43.22;20.70;;;8.50;99.90;;;;;;5053714;28;20024;-68
2021/04/19 03:40:47;;;;;;;42.20;21.45;;;8.40;99.90;;;;;;5059884;28;20031;-68
2021/04/19 03:43:15;;;;;;;40.92;20.23;;;8.50;99.90;;;;;;5054121;28;20021;-68
2021/04/19 03:45:42;;;;;;;40.08;20.92;;;8.40;99.90;;;;;;5071762;28;20028;-69
2021/04/19 03:48:14;;;;;;;38.65;19.67;;;8.40;99.90;;;;;;5061987;28;20112;-69
2021/04/19 03:50:46;;;;;;;44.25;21.23;;;8.40;99.90;;;;;;5064961;28;20024;-69
2021/04/19 03:53:13;;;;;;;40.67;20.70;;;8.60;99.90;;;;;;5061091;28;20040;-69
2021/04/19 03:55:40;;;;;;;42.53;20.48;;;8.50;99.90;;;;;;5057535;28;20029;-69
2021/04/19 03:58:06;;;;;;;41.60;21.33;;;8.70;99.90;;;;;;5055343;28;20056;-68
2021/04/19 04:00:33;;;;;;;40.45;20.30;;;8.60;99.90;;;;;;5055279;28;20062;-69
2021/04/19 04:02:59;;;;;;;46.70;21.95;;;8.60;99.90;;;;;;5061603;28;20112;-69
2021/04/19 04:05:25;;;;;;;41.55;20.23;;;8.60;99.90;;;;;;5057580;28;20558;-69
2021/04/19 04:07:53;;;;;;;43.63;21.80;;;8.60;99.90;;;;;;5060307;28;20456;-70
2021/04/19 04:10:20;;;;;;;44.00;21.00;;;8.60;99.90;;;;;;5058629;28;20476;-69
2021/04/19 04:12:47;;;;;;;42.83;21.20;;;8.50;99.90;;;;;;5061639;28;20029;-69
2021/04/19 04:15:14;;;;;;;42.25;20.38;;;8.40;99.90;;;;;;5056704;28;20028;-69
2021/04/19 04:17:39;;;;;;;43.75;21.00;;;8.30;99.90;;;;;;5059205;28;20037;-69
2021/04/19 04:20:06;;;;;;;42.55;21.02;;;8.50;99.90;;;;;;5053867;28;20103;-69
2021/04/19 04:22:32;;;;;;;41.70;20.45;;;8.50;99.90;;;;;;5052848;28;20048;-69
2021/04/19 04:24:58;;;;;;;40.40;20.10;;;8.60;99.90;;;;;;5054567;28;20512;-69
2021/04/19 04:27:25;;;;;;;43.85;21.42;;;8.40;99.90;;;;;;5061668;28;20097;-71
2021/04/19 04:29:50;;;;;;;42.90;21.75;;;8.30;99.90;;;;;;5058104;28;20034;-71
2021/04/19 04:32:16;;;;;;;45.85;21.23;;;8.30;99.90;;;;;;5037682;28;20033;-71
2021/04/19 04:34:42;;;;;;;40.80;20.25;;;8.30;99.90;;;;;;5051720;28;20498;-73
2021/04/19 04:37:08;;;;;;;44.67;22.02;;;8.20;99.90;;;;;;5055754;28;20040;-70
2021/04/19 04:39:34;;;;;;;48.13;22.80;;;8.30;99.90;;;;;;5058303;28;20034;-71
2021/04/19 04:42:01;;;;;;;45.20;22.02;;;8.40;99.90;;;;;;5052492;28;20025;-71
2021/04/19 04:44:33;;;;;;;45.22;21.92;;;8.40;99.90;;;;;;5052189;28;20023;-71
2021/04/19 04:47:26;;;;;;;45.90;22.73;;;8.50;99.90;;;;;;5054081;28;20024;-70
2021/04/19 04:50:01;;;;;;;48.78;22.65;;;8.40;99.90;;;;;;5054528;28;20111;-70
2021/04/19 04:52:30;;;;;;;49.90;23.35;;;8.40;99.90;;;;;;5050972;28;20072;-70
2021/04/19 04:54:58;;;;;;;48.73;23.93;;;8.30;99.90;;;;;;5060193;28;20056;-69
2021/04/19 04:57:26;;;;;;;45.38;21.67;;;8.30;99.90;;;;;;5062192;28;20536;-69
2021/04/19 04:59:53;;;;;;;50.42;23.60;;;8.30;99.90;;;;;;5067539;28;20491;-70
2021/04/19 05:02:22;;;;;;;48.40;23.90;;;8.40;99.90;;;;;;5053366;28;20654;-69
2021/04/19 05:04:49;;;;;;;46.55;22.92;;;8.40;99.90;;;;;;5050191;28;20451;-71
2021/04/19 05:07:16;;;;;;;45.53;21.10;;;8.80;99.90;;;;;;5065287;28;20066;-71
2021/04/19 05:09:47;;;;;;;44.03;21.77;;;8.70;99.90;;;;;;5057704;28;20013;-70
2021/04/19 05:12:13;;;;;;;39.88;20.23;;;8.80;99.90;;;;;;5055396;28;20047;-68
2021/04/19 05:14:40;;;;;;;40.05;20.15;;;8.70;99.90;;;;;;5051949;28;20472;-69
2021/04/19 05:17:06;;;;;;;42.25;20.63;;;8.60;99.90;;;;;;5053205;28;20063;-69
2021/04/19 05:19:32;;;;;;;45.75;21.98;;;8.50;99.90;;;;;;5061166;28;20016;-69
2021/04/19 05:21:58;;;;;;;45.25;20.58;;;8.50;99.90;;;;;;5065258;28;20050;-69
2021/04/19 05:24:24;;;;;;;41.92;19.48;;;8.40;99.90;;;;;;5070913;28;20411;-72
2021/04/19 05:26:50;;;;;;;47.00;21.60;;;8.40;99.90;;;;;;5060980;28;20155;-70
2021/04/19 05:29:16;;;;;;;44.10;21.48;;;8.70;99.90;;;;;;5061864;28;20107;-70
2021/04/19 05:31:42;;;;;;;42.65;20.33;;;8.60;99.90;;;;;;5063405;28;20075;-69
2021/04/19 05:34:08;;;;;;;44.85;21.95;;;8.80;99.90;;;;;;5061265;28;20407;-69
2021/04/19 05:36:34;;;;;;;40.58;20.20;;;9.00;99.90;;;;;;5061440;28;20040;-69
2021/04/19 05:39:02;;;;;;;46.38;22.55;;;9.10;99.90;;;;;;5055827;28;20021;-70
2021/04/19 05:41:28;;;;;;;43.85;20.50;;;9.20;99.90;;;;;;5053173;28;20029;-70
2021/04/19 05:43:54;;;;;;;39.65;21.25;;;9.20;99.90;;;;;;5057812;28;20082;-69
2021/04/19 05:46:20;;;;;;;38.08;19.85;;;9.30;99.90;;;;;;5058299;28;20060;-69
2021/04/19 05:48:46;;;;;;;37.45;19.25;;;9.30;99.90;;;;;;5056707;28;20473;-70
2021/04/19 05:51:23;;;;;;;33.78;18.23;;;9.40;99.90;;;;;;5062386;28;20063;-69
2021/04/19 05:53:51;;;;;;;36.20;18.23;;;9.30;99.90;;;;;;5057726;28;20047;-70
2021/04/19 05:56:37;;;;;;;34.40;17.95;;;9.50;99.90;;;;;;5059920;28;20041;-70
2021/04/19 05:59:26;;;;;;;30.98;15.98;;;9.80;99.90;;;;;;5039316;28;20120;-70
2021/04/19 06:01:54;;;;;;;31.73;15.80;;;9.80;99.90;;;;;;5063268;28;20486;-70
2021/04/19 06:04:48;;;;;;;29.10;16.25;;;9.90;99.90;;;;;;5059916;28;20056;-70
2021/04/19 06:07:22;;;;;;;30.10;16.35;;;10.00;99.90;;;;;;5055489;28;20033;-70
2021/04/19 06:10:13;;;;;;;30.27;16.17;;;9.50;99.90;;;;;;5056666;28;20027;-69
2021/04/19 06:12:45;;;;;;;32.53;16.25;;;9.60;99.90;;;;;;5058916;28;20047;-70
2021/04/19 06:15:13;;;;;;;29.63;16.58;;;9.60;99.90;;;;;;5058238;28;20396;-71
2021/04/19 06:17:43;;;;;;;31.35;16.80;;;9.60;99.90;;;;;;5063422;28;20045;-71
2021/04/19 06:20:11;;;;;;;30.40;15.60;;;9.80;99.90;;;;;;5061777;28;20114;-71
2021/04/19 06:22:38;;;;;;;32.30;15.13;;;9.80;99.90;;;;;;5062363;28;20029;-69
2021/04/19 06:25:04;;;;;;;28.00;14.68;;;9.70;99.90;;;;;;5064075;28;20574;-70
2021/04/19 06:27:29;;;;;;;28.20;14.15;;;9.80;99.90;;;;;;5064526;28;20146;-70
2021/04/19 06:29:55;;;;;;;27.55;14.02;;;9.80;99.90;;;;;;5063205;28;20033;-70
2021/04/19 06:32:22;;;;;;;24.38;13.20;;;10.00;99.90;;;;;;5070372;28;20476;-69
2021/04/19 06:34:50;;;;;;;25.52;13.00;;;10.10;99.90;;;;;;5063609;28;20032;-71
2021/04/19 06:37:18;;;;;;;25.02;12.75;;;10.20;99.90;;;;;;5057450;28;20040;-70
2021/04/19 06:39:44;;;;;;;22.67;12.25;;;10.00;99.90;;;;;;5064106;28;20495;-70
2021/04/19 06:42:10;;;;;;;21.23;11.45;;;10.10;99.90;;;;;;5068543;28;20058;-70
2021/04/19 06:44:37;;;;;;;24.00;11.25;;;10.30;99.90;;;;;;5070156;28;20008;-70
2021/04/19 06:47:04;;;;;;;21.52;11.10;;;10.30;99.90;;;;;;5068805;28;20481;-70
2021/04/19 06:49:29;;;;;;;18.35;9.52;;;10.80;99.90;;;;;;5065803;28;20040;-69
2021/04/19 06:51:56;;;;;;;16.95;8.10;;;11.10;99.90;;;;;;5066556;28;20028;-69
2021/04/19 06:54:23;;;;;;;17.75;8.55;;;11.30;99.90;;;;;;5065262;28;20052;-70
2021/04/19 06:56:50;;;;;;;14.40;7.65;;;11.50;99.90;;;;;;5060718;28;20446;-69
2021/04/19 06:59:19;;;;;;;16.95;8.38;;;11.50;99.90;;;;;;5069937;28;20460;-70
2021/04/19 07:01:54;;;;;;;14.57;7.50;;;11.30;99.90;;;;;;5063424;28;20464;-70
2021/04/19 07:04:27;;;;;;;15.30;7.00;;;11.50;99.90;;;;;;5070888;28;20028;-69
2021/04/19 07:06:54;;;;;;;13.93;6.05;;;11.60;99.90;;;;;;5054886;28;20104;-69
2021/04/19 07:09:29;;;;;;;11.43;5.80;;;12.00;99.90;;;;;;5062004;28;20055;-69
2021/04/19 07:12:08;;;;;;;12.82;6.10;;;11.80;99.90;;;;;;5068027;28;20078;-70
2021/04/19 07:14:37;;;;;;;11.75;5.80;;;11.60;99.90;;;;;;5070497;28;20077;-70
2021/04/19 07:17:05;;;;;;;11.25;5.80;;;11.60;99.90;;;;;;5062497;28;20032;-70
2021/04/19 07:19:31;;;;;;;10.85;5.57;;;11.60;99.90;;;;;;5066372;28;20056;-69
2021/04/19 07:21:57;;;;;;;10.82;5.20;;;11.60;99.90;;;;;;5069974;28;20526;-69
2021/04/19 07:24:27;;;;;;;11.65;5.90;;;11.60;99.90;;;;;;5064618;28;20025;-69
2021/04/19 07:26:54;;;;;;;9.77;4.47;;;11.70;99.90;;;;;;5066477;28;20028;-69
2021/04/19 07:29:20;;;;;;;9.32;4.50;;;11.70;99.90;;;;;;5061334;28;20051;-69
2021/04/19 07:31:47;;;;;;;8.60;4.00;;;11.70;99.90;;;;;;5067809;28;20040;-69
2021/04/19 07:34:20;;;;;;;10.55;4.47;;;11.80;99.90;;;;;;5065598;28;20090;-69
2021/04/19 07:36:52;;;;;;;10.30;5.28;;;11.90;99.90;;;;;;5061610;28;20036;-69
2021/04/19 07:39:20;;;;;;;10.10;4.60;;;12.40;99.90;;;;;;5064715;28;20082;-69
2021/04/19 07:41:51;;;;;;;10.02;4.88;;;12.50;99.90;;;;;;5066276;28;20093;-69
2021/04/19 07:44:40;;;;;;;9.35;4.53;;;12.50;99.90;;;;;;5070678;28;20076;-69
2021/04/19 07:47:23;;;;;;;8.00;3.00;;;12.40;99.90;;;;;;5058960;28;20037;-70
2021/04/19 07:49:59;;;;;;;7.68;3.10;;;12.40;99.90;;;;;;5061081;28;20020;-69
2021/04/19 07:52:26;;;;;;;7.07;3.10;;;12.20;99.90;;;;;;5059951;28;20492;-69
2021/04/19 07:55:12;;;;;;;7.50;3.15;;;12.20;99.90;;;;;;5056165;28;20033;-70
2021/04/19 07:57:38;;;;;;;8.55;3.67;;;12.20;99.90;;;;;;5067628;28;20024;-69
2021/04/19 08:00:07;;;;;;;7.28;3.20;;;12.20;99.90;;;;;;5064468;28;20056;-69
2021/04/19 08:02:32;;;;;;;6.38;2.70;;;12.50;99.90;;;;;;5065324;28;20029;-69
2021/04/19 08:05:02;;;;;;;10.75;4.10;;;12.50;99.90;;;;;;5061719;28;20024;-69
2021/04/19 08:07:29;;;;;;;8.32;3.75;;;12.30;99.90;;;;;;5059995;28;20071;-70
2021/04/19 08:10:03;;;;;;;7.30;3.22;;;12.20;99.90;;;;;;5062186;28;20020;-70
2021/04/19 08:12:35;;;;;;;6.50;2.78;;;12.10;99.90;;;;;;5061076;28;20151;-70
2021/04/19 08:15:02;;;;;;;7.10;2.70;;;12.30;99.90;;;;;;5059408;28;20801;-70
2021/04/19 08:17:30;;;;;;;6.45;2.58;;;12.80;99.90;;;;;;5061075;28;20048;-69
2021/04/19 08:19:56;;;;;;;7.43;2.70;;;13.30;99.90;;;;;;5060330;28;20464;-70
2021/04/19 08:22:29;;;;;;;6.20;2.70;;;13.50;99.90;;;;;;5062073;28;20041;-70
2021/04/19 08:25:17;;;;;;;8.57;3.10;;;13.70;99.90;;;;;;5058831;28;20033;-70
2021/04/19 08:27:46;;;;;;;7.95;3.00;;;14.30;99.90;;;;;;5061257;28;20441;-70
2021/04/19 08:30:14;;;;;;;6.60;3.03;;;14.80;99.90;;;;;;5060329;28;20119;-70
2021/04/19 08:32:39;;;;;;;7.30;3.05;;;15.20;99.90;;;;;;5057620;28;20021;-71
2021/04/19 08:35:07;;;;;;;6.53;2.83;;;15.30;99.90;;;;;;5064045;28;20438;-71
2021/04/19 08:37:33;;;;;;;6.68;2.90;;;14.50;99.90;;;;;;5062915;28;20064;-70
2021/04/19 08:40:01;;;;;;;6.68;3.20;;;14.10;99.90;;;;;;5062399;28;20130;-70
2021/04/19 08:42:28;;;;;;;9.60;3.70;;;14.10;99.90;;;;;;5060308;28;20098;-71
2021/04/19 08:44:59;;;;;;;7.53;3.67;;;14.00;99.90;;;;;;5065667;28;20492;-70
2021/04/19 08:47:28;;;;;;;8.13;3.90;;;14.80;99.90;;;;;;5066191;28;20513;-71
2021/04/19 08:50:18;;;;;;;8.68;3.80;;;15.60;99.90;;;;;;5064528;28;20029;-70
2021/04/19 08:52:44;;;;;;;;;;;15.80;99.90;;;;;;5062863;28;20037;-70
2021/04/19 08:55:13;;;;;;;9.02;4.35;;;;;;;;;;5061987;28;19917;-70
2021/04/19 08:57:41;;;;;;;9.13;4.38;;;14.60;99.90;;;;;;5066620;28;20067;-71
2021/04/19 09:00:09;;;;;;;8.88;4.25;;;14.70;99.90;;;;;;5062457;28;20124;-71
2021/04/19 09:02:34;;;;;;;7.90;3.53;;;15.50;99.90;;;;;;5061814;28;20021;-70
2021/04/19 09:05:04;;;;;;;8.43;3.83;;;15.50;99.90;;;;;;5063302;28;20024;-71
2021/04/19 09:07:31;;;;;;;9.50;3.90;;;15.90;99.90;;;;;;5066679;28;20103;-70
2021/04/19 09:09:57;;;;;;;7.30;3.35;;;15.80;99.90;;;;;;5060993;28;20024;-70
2021/04/19 09:12:24;;;;;;;8.43;3.72;;;16.70;99.90;;;;;;5058365;28;20025;-68
2021/04/19 09:15:17;;;;;;;7.88;3.53;;;17.20;99.80;;;;;;5060403;28;20025;-71
2021/04/19 09:17:57;;;;;;;9.43;3.80;;;16.80;98.80;;;;;;5056413;28;20028;-70
2021/04/19 09:20:27;;;;;;;;;;;16.50;99.90;;;;;;5059539;28;20056;-70
2021/04/19 09:23:16;;;;;;;8.50;3.58;;;17.10;98.40;;;;;;5061005;28;19958;-69
2021/04/19 09:25:43;;;;;;;8.00;3.97;;;17.10;99.60;;;;;;5066175;28;20028;-70
2021/04/19 09:28:08;;;;;;;8.75;3.70;;;16.70;96.60;;;;;;5063559;28;20059;-71
2021/04/19 09:30:37;;;;;;;7.97;3.70;;;16.90;99.20;;;;;;5066787;28;20468;-70
2021/04/19 09:33:05;;;;;;;8.57;3.85;;;17.00;98.10;;;;;;5061883;28;20817;-71
2021/04/19 09:35:40;;;;;;;9.27;4.18;;;16.90;96.30;;;;;;5066829;28;20052;-70
2021/04/19 09:38:43;;;;;;;9.18;4.45;;;16.90;98.10;;;;;;5068829;28;20040;-71
2021/04/19 09:41:13;;;;;;;8.98;4.18;;;16.00;96.90;;;;;;5065654;28;20601;-70
2021/04/19 09:43:45;;;;;;;8.82;4.32;;;15.80;99.00;;;;;;5066658;28;20467;-70
2021/04/19 09:46:16;;;;;;;9.68;4.50;;;16.80;99.90;;;;;;5066010;28;20041;-69
2021/04/19 09:48:45;;;;;;;10.07;4.80;;;16.00;99.60;;;;;;5067418;28;20028;-69
2021/04/19 09:51:20;;;;;;;12.57;5.88;;;15.60;99.90;;;;;;5064333;28;20024;-70
2021/04/19 09:54:18;;;;;;;12.35;6.50;;;16.10;99.90;;;;;;5066688;28;20048;-69
2021/04/19 09:56:50;;;;;;;13.52;7.05;;;16.20;99.90;;;;;;5066198;28;20058;-69
2021/04/19 09:59:24;;;;;;;14.50;7.55;;;15.30;99.90;;;;;;5065681;28;20016;-68
2021/04/19 10:01:52;;;;;;;14.35;7.38;;;14.80;99.90;;;;;;5067520;28;20052;-70
2021/04/19 10:04:19;;;;;;;17.90;8.35;;;14.40;99.90;;;;;;5060869;28;20020;-69
2021/04/19 10:06:56;;;;;;;13.18;7.47;;;14.40;99.90;;;;;;5059224;28;20090;-69
2021/04/19 10:09:25;;;;;;;12.85;6.78;;;16.60;99.90;;;;;;5061304;28;20380;-69
2021/04/19 10:12:02;;;;;;;14.55;7.93;;;17.10;99.90;;;;;;5062766;28;20075;-70
2021/04/19 10:14:34;;;;;;;16.15;7.22;;;16.70;99.90;;;;;;5059748;28;20039;-69
2021/04/19 10:16:59;;;;;;;13.45;8.23;;;15.80;99.90;;;;;;5061943;28;20127;-69
2021/04/19 10:19:31;;;;;;;14.30;8.52;;;15.00;99.90;;;;;;5059738;28;20029;-70
2021/04/19 10:22:03;;;;;;;15.45;7.72;;;14.70;99.90;;;;;;5061156;28;20029;-70
2021/04/19 10:24:31;;;;;;;13.57;5.35;;;14.40;99.90;;;;;;5060613;28;20036;-70
2021/04/19 10:26:56;;;;;;;12.55;6.38;;;15.00;99.90;;;;;;5060536;28;20421;-70
2021/04/19 10:29:26;;;;;;;13.82;7.95;;;16.10;99.90;;;;;;5060484;28;20891;-70
2021/04/19 10:32:00;;;;;;;14.60;7.93;;;16.00;99.90;;;;;;5060237;28;20017;-70
2021/04/19 10:34:28;;;;;;;13.20;7.43;;;15.50;99.90;;;;;;5061170;28;20459;-71
2021/04/19 10:37:03;;;;;;;13.27;7.13;;;15.20;99.90;;;;;;5057447;28;20041;-70
2021/04/19 10:39:32;;;;;;;12.80;6.82;;;15.70;99.90;;;;;;5059678;28;20036;-70
2021/04/19 10:42:00;;;;;;;15.15;7.70;;;16.00;99.90;;;;;;5057943;28;20017;-70
2021/04/19 10:44:39;;;;;;;12.45;6.93;;;16.00;99.90;;;;;;5064471;28;20017;-69
2021/04/19 10:47:09;;;;;;;12.82;7.10;;;15.50;99.90;;;;;;5061852;28;20031;-69
2021/04/19 10:49:35;;;;;;;12.27;5.97;;;15.10;99.90;;;;;;5059590;28;20478;-69
2021/04/19 10:52:04;;;;;;;12.40;5.97;;;15.00;99.90;;;;;;5055655;28;20043;-70
2021/04/19 10:54:35;;;;;;;11.48;5.70;;;15.80;99.90;;;;;;5058381;28;20045;-67
2021/04/19 10:57:03;;;;;;;12.52;6.65;;;16.50;99.90;;;;;;5073386;28;20037;-69
2021/04/19 10:59:29;;;;;;;13.02;6.78;;;17.10;99.30;;;;;;5063119;28;20033;-68
2021/04/19 11:02:05;;;;;;;12.40;6.28;;;17.20;99.40;;;;;;5061885;28;20043;-69
2021/04/19 11:04:32;;;;;;;11.95;5.80;;;17.10;98.80;;;;;;5061410;28;20024;-68
2021/04/19 11:07:22;;;;;;;13.65;6.75;;;17.40;97.40;;;;;;5066796;28;20082;-69
2021/04/19 11:10:08;;;;;;;11.43;6.00;;;17.20;97.90;;;;;;5071143;28;20483;-68
2021/04/19 11:12:34;;;;;;;10.60;5.82;;;16.50;98.90;;;;;;5066594;28;20234;-68
2021/04/19 11:15:13;;;;;;;8.88;4.55;;;17.10;99.00;;;;;;5064536;28;20020;-67
2021/04/19 11:17:40;;;;;;;9.48;4.40;;;;;;;;;;5062454;28;20039;-68
2021/04/19 11:20:27;;;;;;;9.48;4.82;;;21.50;84.10;;;;;;5061226;28;20021;-69
2021/04/19 11:22:53;;;;;;;10.00;5.05;;;22.80;71.70;;;;;;5059396;28;20129;-68
2021/04/19 11:25:20;;;;;;;11.23;5.20;;;22.00;75.70;;;;;;5054879;28;20183;-68
2021/04/19 11:27:47;;;;;;;12.90;5.75;;;20.50;79.80;;;;;;5060688;28;20021;-68
2021/04/19 11:30:17;;;;;;;10.20;5.13;;;19.70;81.80;;;;;;5060015;28;20042;-68
2021/04/19 11:32:43;;;;;;;9.05;4.55;;;21.10;76.10;;;;;;5055688;28;20715;-69
2021/04/19 11:35:24;;;;;;;11.25;5.80;;;20.90;74.30;;;;;;5056442;28;20036;-68
2021/04/19 11:38:01;;;;;;;10.00;5.85;;;20.50;78.00;;;;;;5060027;28;20498;-68
2021/04/19 11:40:28;;;;;;;11.20;5.90;;;20.50;77.90;;;;;;5055212;28;20032;-69
2021/04/19 11:42:55;;;;;;;10.45;5.50;;;20.70;77.60;;;;;;5060547;28;20104;-67
2021/04/19 11:45:26;;;;;;;11.57;5.50;;;20.80;74.90;;;;;;5065698;28;20159;-69
2021/04/19 11:47:52;;;;;;;11.60;6.28;;;21.00;73.40;;;;;;5067183;28;20463;-68
2021/04/19 11:50:18;;;;;;;11.98;6.88;;;22.20;75.20;;;;;;5067368;28;20094;-69
2021/04/19 11:52:49;;;;;;;13.55;7.28;;;22.10;76.60;;;;;;5065945;28;20044;-69
2021/04/19 11:55:16;;;;;;;12.85;6.97;;;22.00;75.60;;;;;;5055378;28;20033;-68
2021/04/19 11:57:43;;;;;;;14.93;7.88;;;22.00;72.90;;;;;;5059853;28;20124;-68
2021/04/19 12:00:10;;;;;;;11.60;7.00;;;20.10;83.60;;;;;;5063939;28;20021;-69
2021/04/19 12:02:36;;;;;;;11.90;7.13;;;21.70;77.10;;;;;;5060878;28;20040;-69
2021/04/19 12:05:09;;;;;;;12.32;7.22;;;20.90;73.80;;;;;;5071775;28;20031;-68
2021/04/19 12:07:36;;;;;;;17.05;7.90;;;21.20;78.10;;;;;;5064917;28;20229;-69
2021/04/19 12:10:04;;;;;;;13.18;7.50;;;19.90;80.20;;;;;;5064348;28;20119;-69
2021/04/19 12:12:29;;;;;;;14.15;7.38;;;19.70;84.50;;;;;;5057203;28;20127;-69
2021/04/19 12:14:55;;;;;;;13.60;7.93;;;18.90;83.40;;;;;;5062510;28;20107;-68
2021/04/19 12:17:20;;;;;;;13.95;7.40;;;17.30;91.80;;;;;;5065595;28;20039;-69
2021/04/19 12:19:46;;;;;;;13.93;8.63;;;17.70;93.60;;;;;;5067856;28;20028;-68
2021/04/19 12:22:13;;;;;;;16.60;8.55;;;17.30;93.30;;;;;;5063209;28;20354;-69
2021/04/19 12:24:39;;;;;;;14.52;8.15;;;16.60;95.10;;;;;;5066540;28;20472;-68
2021/04/19 12:27:05;;;;;;;13.82;7.20;;;16.50;95.50;;;;;;5069026;28;20036;-69
2021/04/19 12:29:31;;;;;;;12.85;8.02;;;16.40;97.00;;;;;;5069203;28;20047;-69
2021/04/19 12:31:56;;;;;;;12.32;7.10;;;16.30;96.10;;;;;;5068405;28;20082;-68
2021/04/19 12:34:22;;;;;;;12.40;6.95;;;17.60;96.20;;;;;;5057638;28;20390;-68
2021/04/19 12:36:51;;;;;;;15.85;7.50;;;17.20;96.60;;;;;;5063659;28;20453;-68
2021/04/19 12:39:17;;;;;;;12.97;7.33;;;17.40;93.60;;;;;;5060709;28;20101;-68
2021/04/19 12:41:42;;;;;;;13.10;6.82;;;17.60;93.70;;;;;;5056427;28;20036;-69
2021/04/19 12:44:08;;;;;;;13.90;6.63;;;16.90;95.60;;;;;;5056569;28;20060;-68
2021/04/19 12:46:35;;;;;;;14.70;7.18;;;16.80;95.70;;;;;;5057670;28;20028;-69
2021/04/19 12:49:01;;;;;;;11.95;6.40;;;16.90;96.80;;;;;;5061117;28;20032;-68
2021/04/19 12:51:27;;;;;;;15.10;7.68;;;17.90;93.50;;;;;;5060891;28;20086;-68